DWN weather

CLOSED Downtown Airpark
Oklahoma City, Oklahoma, United States

Public forecast

Using degrees Fahrenheit for public forecast. Weather courtesy of forecast.io.

Closest aviation weather report (METAR) to Downtown Airpark

Closest report is Will Rogers World Airport, 4.7 nm (8.7 km) SW. Retrieved 2020/06/01 23:52 UTC (51 minutes ago):

KOKC 012352Z 16012KT 10SM FEW050 BKN250 27/16 A3005 RMK AO2 SLP164 T02720161 10289 20267 56017

Closest aviation forecast (TAF) to Downtown Airpark

Closest forecast is Will Rogers World Airport, 4.7 nm (8.7 km) SW. Retrieved 2020-06-02 00:30 UTC (13 minutes ago):

TAF KOKC 012328Z 0200/0224 16010KT P6SM BKN250 FM021400 18012G18KT P6SM SCT050 BKN150